createdAt,value
2018-03-03T17:09:25.201Z,51.29
2018-03-03T17:11:54.503Z,51.37
2018-03-03T17:14:28.579Z,51.72
2018-03-03T17:17:01.916Z,52.17
2018-03-03T17:19:35.577Z,52.00
2018-03-03T17:22:08.885Z,52.96
2018-03-03T17:24:45.814Z,53.04
2018-03-03T17:27:18.501Z,53.48
2018-03-03T17:29:50.239Z,53.21
2018-03-03T17:32:29.163Z,52.64
2018-03-03T17:35:04.889Z,52.10
2018-03-03T17:37:37.928Z,52.13
2018-03-03T17:40:08.372Z,51.55
2018-03-03T17:42:39.064Z,52.26
2018-03-03T17:45:09.695Z,52.61
2018-03-03T17:47:43.043Z,53.08
2018-03-03T17:50:19.018Z,53.10
2018-03-03T17:52:50.819Z,53.57
2018-03-03T17:55:25.966Z,53.24
2018-03-03T17:57:59.281Z,52.44
2018-03-03T18:00:29.206Z,52.20
2018-03-03T18:02:58.501Z,51.90
2018-03-03T18:05:27.788Z,51.39
2018-03-03T18:07:57.096Z,52.26
2018-03-03T18:10:26.383Z,52.56
2018-03-03T18:12:55.678Z,52.48
2018-03-03T18:15:25.003Z,53.13
2018-03-03T18:17:56.012Z,54.05
2018-03-03T18:20:25.270Z,54.13
2018-03-03T18:22:55.314Z,53.91
2018-03-03T18:25:24.634Z,54.24
2018-03-03T18:27:53.919Z,53.64
2018-03-03T18:30:23.259Z,52.86
2018-03-03T18:32:52.569Z,52.12
2018-03-03T18:35:21.834Z,52.85
2018-03-03T18:37:51.132Z,53.89
2018-03-03T18:40:20.662Z,53.17
2018-03-03T18:42:49.958Z,53.21
2018-03-03T18:45:19.365Z,52.30
2018-03-03T18:47:49.450Z,51.65
2018-03-03T18:50:18.757Z,51.94
2018-03-03T18:52:48.197Z,51.85
2018-03-03T18:55:17.483Z,51.67
2018-03-03T18:57:46.772Z,52.68
2018-03-03T19:00:16.094Z,53.07
2018-03-03T19:02:45.415Z,52.93
2018-03-03T19:05:14.746Z,53.56
2018-03-03T19:07:44.781Z,53.44
2018-03-03T19:10:14.119Z,53.99
2018-03-03T19:12:43.425Z,53.14
2018-03-03T19:15:12.758Z,52.69
2018-03-03T19:17:42.840Z,52.08
2018-03-03T19:20:12.177Z,52.65
2018-03-03T19:22:42.213Z,52.39
2018-03-03T19:25:11.591Z,52.49
2018-03-03T19:27:40.886Z,52.31
2018-03-03T19:30:10.183Z,51.71
2018-03-03T19:32:39.504Z,51.34
2018-03-03T19:35:09.611Z,51.38
2018-03-03T19:37:39.150Z,51.46
2018-03-03T19:40:08.473Z,51.52
2018-03-03T19:42:37.823Z,51.10
2018-03-03T19:45:07.138Z,50.96
2018-03-03T19:47:37.500Z,50.72
2018-03-03T19:50:06.845Z,51.16
2018-03-03T19:52:36.154Z,51.70
2018-03-03T19:55:05.492Z,52.02
2018-03-03T19:57:34.772Z,52.03
2018-03-03T20:00:04.820Z,51.25
2018-03-03T20:02:34.652Z,51.31
2018-03-03T20:05:03.954Z,51.38
2018-03-03T20:07:33.280Z,50.89
2018-03-03T20:10:02.652Z,50.64
2018-03-03T20:12:32.843Z,50.78
2018-03-03T20:15:02.264Z,50.87
2018-03-03T20:17:31.623Z,50.56
2018-03-03T20:20:01.751Z,51.73
2018-03-03T20:22:31.084Z,52.03
2018-03-03T20:25:00.427Z,51.53
2018-03-03T20:27:29.735Z,50.96
2018-03-03T20:29:59.612Z,50.66
2018-03-03T20:32:28.903Z,50.61
2018-03-03T20:34:58.350Z,50.55
2018-03-03T20:37:27.706Z,50.04
2018-03-03T20:39:57.033Z,50.38
2018-03-03T20:42:26.364Z,51.12
2018-03-03T20:44:55.686Z,50.82
2018-03-03T20:47:25.753Z,50.82
2018-03-03T20:49:55.054Z,50.19
2018-03-03T20:52:24.400Z,49.50
